Terminal Aerodrome Forecast
Issued by NWS

Home | Current Version | Previous Version | Graphics & Text | Print | Product List | Glossary On
Versions: 1 2 3 4 5 6 7 8 9 10 11 12 13 14 15 16 17 18 19 20 21
000
FTUS43 KFGF 060539
TAFBJI
TAF
KBJI 060539Z 0606/0706 12014KT P6SM OVC005
     FM061500 18014KT 4SM -SN OVC008
     FM061900 21009KT 1 1/2SM -SN BLSN OVC008
     FM070000 26020G28KT P6SM OVC008
     FM070400 27016KT P6SM OVC008=

USA.gov is the U.S. government's official web portal to all federal, state and local government web resources and services.